createdAt,value
2019-03-08T00:00:48.054Z,70.99
2019-03-08T00:03:34.283Z,71.48
2019-03-08T00:06:20.211Z,73.97
2019-03-08T00:09:06.784Z,74.95
2019-03-08T00:11:52.920Z,75.22
2019-03-08T00:14:38.943Z,75.59
2019-03-08T00:17:25.255Z,76.45
2019-03-08T00:20:11.176Z,76.91
2019-03-08T00:22:57.251Z,76.71
2019-03-08T00:25:52.088Z,76.30
2019-03-08T00:28:38.015Z,76.57
2019-03-08T00:31:24.181Z,76.22
2019-03-08T00:34:10.775Z,76.03
2019-03-08T00:36:56.719Z,75.91
2019-03-08T00:39:42.903Z,76.29
2019-03-08T00:42:28.959Z,76.24
2019-03-08T00:45:14.988Z,75.72
2019-03-08T00:48:01.178Z,75.92
2019-03-08T00:50:47.539Z,75.44
2019-03-08T00:53:34.427Z,75.56
2019-03-08T00:56:20.671Z,75.65
2019-03-08T00:59:08.012Z,75.64
2019-03-08T01:01:55.194Z,75.91
2019-03-08T01:04:41.207Z,75.90
2019-03-08T01:07:27.624Z,76.15
2019-03-08T01:10:15.879Z,76.22
2019-03-08T01:13:02.158Z,76.12
2019-03-08T01:15:48.376Z,76.34
2019-03-08T01:18:34.576Z,76.19
2019-03-08T01:21:20.912Z,76.75
2019-03-08T01:24:07.438Z,77.73
2019-03-08T01:26:53.720Z,80.37
2019-03-08T01:29:39.908Z,81.63
2019-03-08T01:32:26.524Z,81.82
2019-03-08T01:35:13.633Z,82.62
2019-03-08T01:38:00.872Z,83.22
2019-03-08T01:40:47.516Z,84.16
2019-03-08T01:43:33.852Z,85.04
2019-03-08T01:46:19.856Z,85.66
2019-03-08T01:49:05.750Z,85.84
2019-03-08T01:51:55.424Z,86.47
2019-03-08T01:54:41.599Z,86.37
2019-03-08T01:57:27.869Z,86.71
2019-03-08T02:00:15.924Z,86.64
2019-03-08T02:03:01.904Z,86.32
2019-03-08T02:05:47.843Z,86.38
2019-03-08T02:08:36.030Z,86.62
2019-03-08T02:11:21.870Z,86.86
2019-03-08T02:14:08.037Z,87.24
2019-03-08T02:16:54.255Z,87.68
2019-03-08T02:19:40.405Z,88.08
2019-03-08T02:22:26.508Z,88.34
2019-03-08T02:25:12.787Z,88.74
2019-03-08T02:27:58.767Z,88.74
2019-03-08T02:30:45.432Z,89.13
2019-03-08T02:33:31.618Z,89.40
2019-03-08T02:36:17.748Z,89.57
2019-03-08T02:39:06.423Z,89.96
2019-03-08T02:41:52.740Z,90.35
2019-03-08T02:44:38.948Z,90.29
2019-03-08T02:47:25.168Z,90.49
2019-03-08T02:50:11.193Z,90.49
2019-03-08T02:52:57.567Z,90.31
2019-03-08T02:55:43.877Z,90.24
2019-03-08T02:58:29.700Z,90.21
2019-03-08T03:01:16.289Z,90.13
2019-03-08T03:04:02.456Z,89.99
2019-03-08T03:06:48.267Z,89.10
2019-03-08T03:09:34.602Z,88.79
2019-03-08T03:12:20.369Z,88.81
2019-03-08T03:15:06.935Z,88.90
2019-03-08T03:17:52.972Z,89.00
2019-03-08T03:20:39.220Z,88.84
2019-03-08T03:23:25.108Z,88.83
2019-03-08T03:26:11.328Z,88.36
2019-03-08T03:28:57.673Z,87.92
2019-03-08T03:31:43.698Z,87.69
2019-03-08T03:34:29.579Z,87.28
2019-03-08T03:37:15.875Z,87.06
2019-03-08T03:40:01.962Z,86.74
2019-03-08T03:42:48.088Z,86.31
2019-03-08T03:45:34.112Z,86.28
2019-03-08T03:48:20.879Z,85.42
2019-03-08T03:51:06.621Z,85.15
2019-03-08T03:53:52.788Z,85.30
2019-03-08T03:56:39.015Z,84.79
2019-03-08T03:59:25.225Z,84.23
2019-03-08T04:02:11.385Z,84.38
2019-03-08T04:04:57.789Z,84.50
2019-03-08T04:07:44.016Z,84.58
2019-03-08T04:10:30.176Z,84.28
2019-03-08T04:13:16.352Z,83.88
2019-03-08T04:16:02.375Z,83.71
2019-03-08T04:18:48.273Z,83.32
2019-03-08T04:21:34.516Z,83.35
2019-03-08T04:24:20.541Z,82.83
2019-03-08T04:27:06.495Z,82.77
2019-03-08T04:29:52.828Z,83.17
2019-03-08T04:32:38.821Z,83.19
2019-03-08T04:35:24.777Z,83.50
2019-03-08T04:38:14.160Z,83.29
2019-03-08T04:41:00.213Z,83.39
2019-03-08T04:43:46.168Z,83.35
2019-03-08T04:46:32.283Z,82.92
2019-03-08T04:49:18.233Z,83.14
2019-03-08T04:52:04.150Z,82.76
2019-03-08T04:54:50.804Z,82.94
2019-03-08T04:57:36.951Z,83.12
2019-03-08T05:00:23.507Z,82.35
2019-03-08T05:03:09.809Z,82.80
2019-03-08T05:05:55.708Z,82.33
2019-03-08T05:08:41.563Z,81.81
2019-03-08T05:11:27.885Z,81.56
2019-03-08T05:14:13.889Z,81.64
2019-03-08T05:16:59.886Z,80.97
2019-03-08T05:19:45.981Z,81.11
2019-03-08T05:22:31.902Z,80.88
2019-03-08T05:25:17.801Z,80.75
2019-03-08T05:28:04.899Z,80.83
2019-03-08T05:30:51.244Z,80.52
2019-03-08T05:33:40.249Z,80.34
2019-03-08T05:36:26.517Z,80.53
2019-03-08T05:39:12.544Z,80.49
2019-03-08T05:41:58.564Z,80.03
2019-03-08T05:44:44.859Z,80.25
2019-03-08T05:47:30.969Z,79.81
2019-03-08T05:50:17.375Z,80.08
2019-03-08T05:53:03.495Z,80.00
2019-03-08T05:55:49.449Z,80.12
2019-03-08T05:58:35.786Z,80.22
2019-03-08T06:01:21.599Z,80.06
2019-03-08T06:04:07.489Z,80.39
2019-03-08T06:06:53.745Z,79.95
2019-03-08T06:09:40.131Z,79.93
2019-03-08T06:12:26.157Z,79.82
2019-03-08T06:15:12.294Z,79.82
2019-03-08T06:17:58.266Z,79.55
2019-03-08T06:20:44.251Z,79.40
2019-03-08T06:23:33.909Z,79.28
2019-03-08T06:26:19.758Z,79.28
2019-03-08T06:29:05.937Z,79.42
2019-03-08T06:31:51.830Z,79.45
2019-03-08T06:34:37.744Z,79.46
2019-03-08T06:37:23.814Z,80.04
2019-03-08T06:40:10.381Z,79.92
2019-03-08T06:42:56.729Z,80.06
2019-03-08T06:45:42.772Z,79.95
2019-03-08T06:48:28.961Z,79.55
2019-03-08T06:51:15.064Z,79.77
2019-03-08T06:54:00.886Z,79.79
2019-03-08T06:56:47.074Z,80.05
2019-03-08T06:59:44.786Z,80.01
2019-03-08T07:02:30.837Z,79.80
2019-03-08T07:05:18.650Z,80.35
2019-03-08T07:08:04.677Z,80.50
2019-03-08T07:10:57.631Z,80.42
2019-03-08T07:13:48.664Z,80.20
2019-03-08T07:16:34.147Z,79.81
2019-03-08T07:19:23.414Z,79.90
2019-03-08T07:22:13.448Z,80.31
2019-03-08T07:25:15.358Z,80.34
2019-03-08T07:28:33.058Z,80.73
2019-03-08T07:31:50.810Z,80.79
2019-03-08T07:34:46.682Z,81.04
2019-03-08T07:37:55.346Z,80.75
2019-03-08T07:41:03.629Z,80.04
2019-03-08T07:44:12.465Z,80.32
2019-03-08T07:47:16.746Z,79.70
2019-03-08T07:50:21.961Z,79.21
2019-03-08T07:53:33.457Z,79.46
2019-03-08T07:56:43.809Z,79.20
2019-03-08T07:59:55.133Z,79.18
2019-03-08T08:03:03.994Z,80.12
2019-03-08T08:05:58.319Z,80.69
2019-03-08T08:09:02.340Z,80.05
2019-03-08T08:12:13.872Z,79.58
2019-03-08T08:15:10.461Z,78.19
2019-03-08T08:18:31.018Z,77.87
2019-03-08T08:21:30.913Z,77.69
2019-03-08T08:24:27.165Z,76.97
2019-03-08T08:27:36.106Z,74.54
2019-03-08T08:30:44.002Z,74.57
2019-03-08T08:33:43.614Z,73.92
2019-03-08T08:36:55.064Z,73.62
2019-03-08T08:39:58.878Z,76.40
2019-03-08T08:43:16.822Z,76.75
2019-03-08T08:46:12.065Z,76.17
2019-03-08T08:49:17.375Z,76.90
2019-03-08T08:52:21.818Z,77.11
2019-03-08T08:55:27.626Z,71.90
2019-03-08T08:58:35.927Z,69.74
2019-03-08T09:01:49.779Z,69.45
2019-03-08T09:05:04.809Z,70.29
2019-03-08T09:08:14.060Z,73.60
2019-03-08T09:11:22.347Z,74.34
2019-03-08T09:14:21.661Z,73.87
2019-03-08T09:17:30.468Z,74.22
2019-03-08T09:20:34.460Z,73.23
2019-03-08T09:23:46.453Z,73.57
2019-03-08T09:27:06.220Z,73.11
2019-03-08T09:30:14.814Z,72.58
2019-03-08T09:33:20.281Z,72.16
2019-03-08T09:36:32.414Z,71.08
2019-03-08T09:39:43.476Z,72.20
2019-03-08T09:42:55.248Z,72.49
2019-03-08T09:46:03.740Z,74.45
2019-03-08T09:48:56.704Z,74.39
2019-03-08T09:51:55.831Z,76.04
2019-03-08T09:55:00.875Z,75.58
2019-03-08T09:58:07.067Z,75.01
2019-03-08T10:01:28.210Z,75.29
2019-03-08T10:04:29.165Z,76.75
2019-03-08T10:07:23.831Z,77.23
2019-03-08T10:10:38.128Z,76.56
2019-03-08T10:13:33.115Z,76.39
2019-03-08T10:16:26.176Z,75.71
2019-03-08T10:19:25.219Z,74.32
2019-03-08T10:22:22.664Z,74.60
2019-03-08T10:25:34.475Z,67.20
2019-03-08T10:28:29.926Z,65.20
2019-03-08T10:31:38.566Z,64.48
2019-03-08T10:34:59.184Z,65.83
2019-03-08T10:38:00.605Z,65.76
2019-03-08T10:41:10.143Z,64.98
2019-03-08T10:44:15.664Z,64.55
2019-03-08T10:47:13.911Z,64.19
2019-03-08T10:50:27.323Z,66.59
2019-03-08T10:53:30.493Z,66.54
2019-03-08T10:56:51.403Z,63.48
2019-03-08T10:59:56.932Z,61.42
2019-03-08T11:02:59.904Z,62.25
2019-03-08T11:06:08.474Z,62.27
2019-03-08T11:09:20.200Z,56.92
2019-03-08T11:12:29.035Z,58.04
2019-03-08T11:15:37.593Z,58.06
2019-03-08T11:18:43.805Z,57.28
2019-03-08T11:22:07.724Z,56.93
2019-03-08T11:25:15.817Z,55.68
2019-03-08T11:28:36.610Z,54.35
2019-03-08T11:31:29.680Z,55.13
2019-03-08T11:34:28.815Z,53.69
2019-03-08T11:37:34.192Z,56.45
2019-03-08T11:40:40.300Z,56.38
2019-03-08T11:43:50.596Z,56.12
2019-03-08T11:47:11.375Z,56.78
2019-03-08T11:50:23.643Z,58.13
2019-03-08T11:53:28.176Z,56.46
2019-03-08T11:56:32.372Z,56.65
2019-03-08T11:59:39.657Z,55.28
2019-03-08T12:02:43.768Z,51.46
2019-03-08T12:05:55.656Z,48.74
2019-03-08T12:09:00.990Z,49.43
2019-03-08T12:12:25.285Z,47.99
2019-03-08T12:15:34.345Z,52.03
2019-03-08T12:18:42.358Z,49.66
2019-03-08T12:22:02.907Z,50.43
2019-03-08T12:34:02.151Z,59.36
2019-03-08T12:37:10.594Z,61.35
2019-03-08T12:40:22.244Z,57.02
2019-03-08T12:43:30.721Z,56.13
2019-03-08T12:46:36.096Z,59.67
2019-03-08T12:59:18.503Z,63.66
2019-03-08T13:05:25.702Z,66.37
2019-03-08T13:08:30.583Z,66.66
2019-03-08T13:11:16.000Z,65.29
2019-03-08T13:14:02.184Z,66.16
2019-03-08T13:23:05.808Z,68.24
2019-03-08T13:25:51.081Z,69.46
2019-03-08T13:28:36.583Z,70.70
2019-03-08T13:31:22.627Z,70.63
2019-03-08T13:34:08.220Z,70.59
2019-03-08T13:36:53.636Z,71.30
2019-03-08T13:39:39.292Z,71.78
2019-03-08T13:42:28.208Z,70.46
2019-03-08T13:54:15.796Z,69.88
2019-03-08T13:57:01.151Z,69.34
2019-03-08T13:59:47.117Z,69.94
2019-03-08T14:02:32.709Z,67.78
2019-03-08T14:11:24.440Z,63.73
2019-03-08T14:14:09.904Z,64.01
2019-03-08T14:16:55.568Z,60.74
2019-03-08T14:19:41.384Z,58.72
2019-03-08T14:22:27.331Z,60.42
2019-03-08T14:25:12.880Z,59.75
2019-03-08T14:27:58.936Z,55.21
2019-03-08T14:40:46.246Z,57.92
2019-03-08T14:43:48.979Z,57.19
2019-03-08T14:46:56.385Z,55.45
2019-03-08T14:49:45.776Z,63.83
2019-03-08T14:52:32.916Z,65.87
2019-03-08T14:55:19.039Z,67.77
2019-03-08T14:58:05.666Z,68.09
2019-03-08T15:00:51.229Z,68.20
2019-03-08T15:03:43.132Z,68.40
2019-03-08T15:06:28.017Z,68.35
2019-03-08T15:09:12.368Z,68.31
2019-03-08T15:11:59.536Z,68.62
2019-03-08T15:14:45.244Z,69.26
2019-03-08T15:17:30.828Z,69.21
2019-03-08T15:20:17.024Z,70.08
2019-03-08T15:23:02.667Z,70.06
2019-03-08T15:25:51.065Z,69.59
2019-03-08T15:37:44.381Z,71.36
2019-03-08T15:40:28.373Z,70.87
2019-03-08T15:43:14.824Z,71.51
2019-03-08T15:46:00.563Z,70.62
2019-03-08T15:48:49.318Z,69.88
2019-03-08T15:51:34.360Z,67.61
2019-03-08T15:54:20.818Z,67.40
2019-03-08T15:57:06.904Z,67.24
2019-03-08T15:59:52.277Z,66.49
2019-03-08T16:02:37.819Z,66.87
2019-03-08T16:05:28.393Z,67.98
2019-03-08T16:08:13.710Z,67.11
2019-03-08T16:10:59.170Z,67.89
2019-03-08T16:13:44.750Z,67.91
2019-03-08T16:16:30.221Z,68.41
2019-03-08T16:19:15.527Z,68.12
2019-03-08T16:22:01.328Z,67.29
2019-03-08T16:24:46.885Z,67.07
2019-03-08T16:27:32.290Z,66.98
2019-03-08T16:30:22.497Z,67.57
2019-03-08T16:33:20.437Z,67.49
2019-03-08T16:36:17.885Z,67.99
2019-03-08T16:39:24.214Z,68.95
2019-03-08T16:42:28.606Z,68.55
2019-03-08T16:45:32.791Z,69.25
2019-03-08T16:48:36.160Z,68.33
2019-03-08T16:51:44.559Z,67.84
2019-03-08T16:54:53.165Z,68.05
2019-03-08T16:57:58.432Z,67.63
2019-03-08T17:01:02.142Z,69.10
2019-03-08T17:04:04.397Z,68.01
2019-03-08T17:07:09.620Z,67.91
2019-03-08T17:10:15.237Z,67.85
2019-03-08T17:13:32.938Z,68.22
2019-03-08T17:16:46.838Z,69.11
2019-03-08T17:20:04.848Z,67.37
2019-03-08T17:23:06.795Z,66.96
2019-03-08T17:26:03.256Z,66.03
2019-03-08T17:29:05.773Z,65.52
2019-03-08T17:32:06.786Z,64.85
2019-03-08T17:35:11.920Z,64.05
2019-03-08T17:38:09.689Z,63.56
2019-03-08T17:41:17.395Z,63.16
2019-03-08T17:44:24.285Z,62.87
2019-03-08T17:47:18.145Z,63.05
2019-03-08T17:50:30.006Z,62.99
2019-03-08T17:53:37.452Z,62.93
2019-03-08T17:56:34.593Z,63.08
2019-03-08T17:59:48.377Z,63.29
2019-03-08T18:02:53.741Z,63.74
2019-03-08T18:06:09.259Z,63.96
2019-03-08T18:09:05.470Z,63.82
2019-03-08T18:12:07.633Z,64.18
2019-03-08T18:15:25.149Z,64.00
2019-03-08T18:18:28.993Z,63.56
2019-03-08T18:21:37.581Z,63.50
2019-03-08T18:24:58.578Z,62.82
2019-03-08T18:28:13.465Z,62.92
2019-03-08T18:31:18.497Z,62.97
2019-03-08T18:34:15.246Z,62.70
2019-03-08T18:37:35.817Z,62.94
2019-03-08T18:40:41.994Z,63.10
2019-03-08T18:43:34.269Z,62.45
2019-03-08T18:49:23.614Z,63.43
2019-03-08T18:52:31.647Z,63.32
2019-03-08T18:55:49.668Z,63.50
2019-03-08T18:58:56.669Z,63.08
2019-03-08T19:02:15.292Z,63.24
2019-03-08T19:05:18.897Z,63.28
2019-03-08T19:08:25.136Z,63.61
2019-03-08T19:11:34.449Z,63.44
2019-03-08T19:14:37.580Z,63.85
2019-03-08T19:17:49.072Z,63.85
2019-03-08T19:20:46.925Z,63.78
2019-03-08T19:23:50.768Z,63.31
2019-03-08T19:26:47.201Z,63.43
2019-03-08T19:29:55.313Z,63.50
2019-03-08T19:32:54.413Z,63.78
2019-03-08T19:36:00.792Z,63.45
2019-03-08T19:39:19.121Z,63.29
2019-03-08T19:42:24.773Z,62.96
2019-03-08T19:45:33.088Z,63.26
2019-03-08T19:48:45.214Z,63.76
2019-03-08T19:52:06.043Z,63.92
2019-03-08T19:55:20.918Z,64.42
2019-03-08T19:58:31.901Z,64.31
2019-03-08T20:01:37.697Z,65.05
2019-03-08T20:04:50.008Z,65.31
2019-03-08T20:07:57.594Z,66.24
2019-03-08T20:11:16.009Z,70.52
2019-03-08T20:14:33.685Z,72.08
2019-03-08T20:17:26.329Z,72.46
2019-03-08T20:20:36.313Z,72.53
2019-03-08T20:23:32.708Z,72.95
2019-03-08T20:26:38.123Z,73.59
2019-03-08T20:29:34.310Z,72.95
2019-03-08T20:32:30.038Z,71.84
2019-03-08T20:35:25.619Z,72.72
2019-03-08T20:38:29.718Z,72.67
2019-03-08T20:41:26.768Z,72.90
2019-03-08T20:44:16.903Z,72.98
2019-03-08T20:47:10.580Z,73.12
2019-03-08T20:49:56.498Z,73.80
2019-03-08T20:52:42.184Z,74.05
2019-03-08T20:55:28.063Z,73.83
2019-03-08T20:58:14.481Z,73.04
2019-03-08T21:01:00.598Z,74.24
2019-03-08T21:03:49.007Z,74.43
2019-03-08T21:06:35.698Z,75.02
2019-03-08T21:09:21.176Z,75.01
2019-03-08T21:12:08.140Z,75.97
2019-03-08T21:15:01.596Z,75.03
2019-03-08T21:17:47.508Z,75.00
2019-03-08T21:20:34.585Z,74.55
2019-03-08T21:23:21.487Z,74.82
2019-03-08T21:26:07.499Z,74.85
2019-03-08T21:28:53.825Z,74.66
2019-03-08T21:31:40.176Z,74.60
2019-03-08T21:34:26.058Z,75.04
2019-03-08T21:37:11.885Z,75.40
2019-03-08T21:39:58.288Z,75.11
2019-03-08T21:42:44.916Z,74.96
2019-03-08T21:45:31.332Z,75.43
2019-03-08T21:48:17.899Z,75.36
2019-03-08T21:51:04.028Z,75.13
2019-03-08T21:53:50.115Z,75.29
2019-03-08T21:56:35.759Z,74.70
2019-03-08T21:59:22.490Z,74.86
2019-03-08T22:02:10.590Z,75.49
2019-03-08T22:04:59.023Z,75.38
2019-03-08T22:07:45.735Z,75.57
2019-03-08T22:10:43.464Z,75.53
2019-03-08T22:13:29.371Z,75.34
2019-03-08T22:16:14.880Z,74.99
2019-03-08T22:19:01.306Z,74.65
2019-03-08T22:21:47.212Z,74.86
2019-03-08T22:24:33.543Z,74.68
2019-03-08T22:27:19.790Z,74.55
2019-03-08T22:30:08.012Z,74.19
2019-03-08T22:32:53.979Z,74.54
2019-03-08T22:35:40.251Z,74.16
2019-03-08T22:38:26.407Z,74.20
2019-03-08T22:41:12.408Z,74.43
2019-03-08T22:44:00.147Z,74.15
2019-03-08T22:46:46.106Z,74.04
2019-03-08T22:49:33.154Z,74.05
2019-03-08T22:52:19.864Z,74.19
2019-03-08T22:55:06.776Z,74.07
2019-03-08T22:57:53.155Z,74.12
2019-03-08T23:00:59.678Z,73.97
2019-03-08T23:03:45.027Z,74.19
2019-03-08T23:06:31.205Z,73.52
2019-03-08T23:09:18.479Z,73.45
2019-03-08T23:12:04.797Z,73.42
2019-03-08T23:14:50.372Z,73.16
2019-03-08T23:17:36.532Z,72.88
2019-03-08T23:20:22.402Z,73.07
2019-03-08T23:23:07.928Z,72.20
2019-03-08T23:25:54.148Z,72.58
2019-03-08T23:28:59.768Z,72.52
2019-03-08T23:32:08.380Z,72.43
2019-03-08T23:34:54.366Z,72.49
2019-03-08T23:37:39.744Z,73.03
2019-03-08T23:40:27.107Z,73.37
2019-03-08T23:43:12.658Z,73.59
2019-03-08T23:45:58.827Z,74.26
2019-03-08T23:48:44.233Z,74.19
2019-03-08T23:51:29.819Z,75.29
2019-03-08T23:54:18.152Z,76.04
2019-03-08T23:57:04.036Z,76.20
2019-03-08T23:59:50.688Z,75.12
